ENEV/EVE METAR and TAF weather

Enter ICAO airport designator
Station Type Date Time Source
ENEV METAR 2019/04/25 01:50 UTC NOAA

ENEV 250150Z AUTO 00000KT 9999 R17///// NCD 01/M00 Q1023 RMK WIND 1400FT 10011KT


Station Type Date Time Source
ENEV Decoded METAR 2019/04/25 01:50 UTC NOAA

Evenes, Norway (ENEV) 68-31N 016-41E 26M
Apr 24, 2019 - 09:50 PM EDT / 2019.04.25 0150 UTC
Wind: Calm:0
Visibility: greater than 7 mile(s):0
Temperature: 33 F (1 C)
Dew Point: 32 F (0 C)
Relative Humidity: 93%
Pressure (altimeter): 30.21 in. Hg (1023 hPa)
ob: ENEV 250150Z AUTO 00000KT 9999 R17///// NCD 01/M00 Q1023 RMK WIND 1400FT 10011KT
cycle: 2

Station Type Date Time Source
ENEV TAF 2010/02/05 07:50 UTC NOAA

METAR ENEV 050750Z 14007KT 9999 FEW040 SCT055 M04/M09 Q1019

Example: see airport list